sensor_id;sensor_type;location;lat;lon;timestamp;P1;durP1;ratioP1;P2;durP2;ratioP2
54241;SDS011;40156;51.080;17.082;2022-12-10T00:01:30;68.38;;;23.38;;
54241;SDS011;40156;51.080;17.082;2022-12-10T00:03:57;81.07;;;25.52;;
54241;SDS011;40156;51.080;17.082;2022-12-10T00:06:27;79.70;;;26.00;;
54241;SDS011;40156;51.080;17.082;2022-12-10T00:08:55;79.53;;;25.25;;
54241;SDS011;40156;51.080;17.082;2022-12-10T00:11:23;81.53;;;26.35;;
54241;SDS011;40156;51.080;17.082;2022-12-10T00:13:51;64.10;;;21.08;;
54241;SDS011;40156;51.080;17.082;2022-12-10T00:19:41;70.70;;;21.90;;
54241;SDS011;40156;51.080;17.082;2022-12-10T00:22:09;88.53;;;24.20;;
54241;SDS011;40156;51.080;17.082;2022-12-10T00:24:36;82.32;;;24.52;;
54241;SDS011;40156;51.080;17.082;2022-12-10T00:27:04;82.88;;;24.15;;
54241;SDS011;40156;51.080;17.082;2022-12-10T00:29:31;69.60;;;23.38;;
54241;SDS011;40156;51.080;17.082;2022-12-10T00:31:59;78.30;;;23.38;;
54241;SDS011;40156;51.080;17.082;2022-12-10T00:34:26;73.88;;;23.23;;
54241;SDS011;40156;51.080;17.082;2022-12-10T00:36:54;81.78;;;23.38;;
54241;SDS011;40156;51.080;17.082;2022-12-10T00:39:21;78.57;;;23.20;;
54241;SDS011;40156;51.080;17.082;2022-12-10T00:41:49;76.97;;;22.88;;
54241;SDS011;40156;51.080;17.082;2022-12-10T00:44:16;98.35;;;26.67;;
54241;SDS011;40156;51.080;17.082;2022-12-10T00:46:44;73.78;;;22.42;;
54241;SDS011;40156;51.080;17.082;2022-12-10T00:49:12;85.10;;;24.05;;
54241;SDS011;40156;51.080;17.082;2022-12-10T00:51:40;74.60;;;23.13;;
54241;SDS011;40156;51.080;17.082;2022-12-10T00:54:07;94.15;;;25.05;;
54241;SDS011;40156;51.080;17.082;2022-12-10T00:56:35;76.03;;;22.02;;
54241;SDS011;40156;51.080;17.082;2022-12-10T00:59:05;76.50;;;22.58;;
54241;SDS011;40156;51.080;17.082;2022-12-10T01:01:34;74.22;;;22.38;;
54241;SDS011;40156;51.080;17.082;2022-12-10T01:04:23;86.65;;;23.88;;
54241;SDS011;40156;51.080;17.082;2022-12-10T01:06:52;68.47;;;19.52;;
54241;SDS011;40156;51.080;17.082;2022-12-10T01:09:23;76.18;;;23.77;;
54241;SDS011;40156;51.080;17.082;2022-12-10T01:11:51;75.75;;;21.20;;
54241;SDS011;40156;51.080;17.082;2022-12-10T01:14:22;80.65;;;23.42;;
54241;SDS011;40156;51.080;17.082;2022-12-10T01:16:52;79.20;;;23.20;;
54241;SDS011;40156;51.080;17.082;2022-12-10T01:19:20;75.63;;;21.10;;
54241;SDS011;40156;51.080;17.082;2022-12-10T01:21:54;80.15;;;24.17;;
54241;SDS011;40156;51.080;17.082;2022-12-10T01:24:25;73.20;;;23.13;;
54241;SDS011;40156;51.080;17.082;2022-12-10T01:26:53;69.60;;;21.55;;
54241;SDS011;40156;51.080;17.082;2022-12-10T01:29:21;74.03;;;20.60;;
54241;SDS011;40156;51.080;17.082;2022-12-10T01:31:52;78.80;;;20.98;;
54241;SDS011;40156;51.080;17.082;2022-12-10T01:34:20;70.18;;;22.38;;
54241;SDS011;40156;51.080;17.082;2022-12-10T01:36:58;65.82;;;20.67;;
54241;SDS011;40156;51.080;17.082;2022-12-10T01:39:25;73.05;;;21.42;;
54241;SDS011;40156;51.080;17.082;2022-12-10T01:41:54;69.88;;;21.25;;
54241;SDS011;40156;51.080;17.082;2022-12-10T01:53:10;69.20;;;21.98;;
54241;SDS011;40156;51.080;17.082;2022-12-10T01:55:49;72.53;;;20.45;;
54241;SDS011;40156;51.080;17.082;2022-12-10T01:58:17;61.40;;;20.10;;
54241;SDS011;40156;51.080;17.082;2022-12-10T02:01:01;67.57;;;19.88;;
54241;SDS011;40156;51.080;17.082;2022-12-10T02:06:46;72.78;;;21.95;;
54241;SDS011;40156;51.080;17.082;2022-12-10T02:08:56;77.75;;;22.02;;
54241;SDS011;40156;51.080;17.082;2022-12-10T02:11:31;67.88;;;20.23;;
54241;SDS011;40156;51.080;17.082;2022-12-10T02:14:02;70.10;;;20.58;;
54241;SDS011;40156;51.080;17.082;2022-12-10T02:16:33;74.55;;;22.10;;
54241;SDS011;40156;51.080;17.082;2022-12-10T02:22:01;70.80;;;21.65;;
54241;SDS011;40156;51.080;17.082;2022-12-10T02:24:30;74.43;;;21.40;;
54241;SDS011;40156;51.080;17.082;2022-12-10T02:30:22;71.72;;;19.65;;
54241;SDS011;40156;51.080;17.082;2022-12-10T02:32:50;78.25;;;22.40;;
54241;SDS011;40156;51.080;17.082;2022-12-10T02:35:22;67.22;;;20.92;;
54241;SDS011;40156;51.080;17.082;2022-12-10T02:37:53;75.53;;;20.80;;
54241;SDS011;40156;51.080;17.082;2022-12-10T02:40:23;69.25;;;21.58;;
54241;SDS011;40156;51.080;17.082;2022-12-10T02:42:51;73.88;;;20.15;;
54241;SDS011;40156;51.080;17.082;2022-12-10T02:45:20;82.22;;;20.02;;
54241;SDS011;40156;51.080;17.082;2022-12-10T02:47:49;66.43;;;19.88;;
54241;SDS011;40156;51.080;17.082;2022-12-10T02:50:18;70.82;;;20.85;;
54241;SDS011;40156;51.080;17.082;2022-12-10T02:52:46;68.85;;;21.33;;
54241;SDS011;40156;51.080;17.082;2022-12-10T02:55:14;68.85;;;19.50;;
54241;SDS011;40156;51.080;17.082;2022-12-10T02:58:17;69.38;;;19.35;;
54241;SDS011;40156;51.080;17.082;2022-12-10T03:00:39;65.65;;;19.95;;
54241;SDS011;40156;51.080;17.082;2022-12-10T03:03:31;72.53;;;19.63;;
54241;SDS011;40156;51.080;17.082;2022-12-10T03:09:34;78.85;;;21.88;;
54241;SDS011;40156;51.080;17.082;2022-12-10T03:12:08;77.80;;;21.13;;
54241;SDS011;40156;51.080;17.082;2022-12-10T03:14:39;65.72;;;19.33;;
54241;SDS011;40156;51.080;17.082;2022-12-10T03:17:07;68.70;;;19.15;;
54241;SDS011;40156;51.080;17.082;2022-12-10T03:19:45;72.70;;;20.42;;
54241;SDS011;40156;51.080;17.082;2022-12-10T03:26:00;74.65;;;20.05;;
54241;SDS011;40156;51.080;17.082;2022-12-10T03:28:34;72.55;;;19.50;;
54241;SDS011;40156;51.080;17.082;2022-12-10T03:31:05;72.95;;;18.63;;
54241;SDS011;40156;51.080;17.082;2022-12-10T03:33:34;74.40;;;20.77;;
54241;SDS011;40156;51.080;17.082;2022-12-10T03:36:01;71.97;;;20.42;;
54241;SDS011;40156;51.080;17.082;2022-12-10T03:38:29;69.88;;;18.80;;
54241;SDS011;40156;51.080;17.082;2022-12-10T03:40:56;67.05;;;19.38;;
54241;SDS011;40156;51.080;17.082;2022-12-10T03:43:24;71.53;;;18.05;;
54241;SDS011;40156;51.080;17.082;2022-12-10T03:45:51;70.18;;;19.50;;
54241;SDS011;40156;51.080;17.082;2022-12-10T03:48:19;69.40;;;20.70;;
54241;SDS011;40156;51.080;17.082;2022-12-10T03:50:46;63.97;;;18.70;;
54241;SDS011;40156;51.080;17.082;2022-12-10T03:53:14;68.53;;;19.95;;
54241;SDS011;40156;51.080;17.082;2022-12-10T03:55:41;67.10;;;19.38;;
54241;SDS011;40156;51.080;17.082;2022-12-10T03:58:09;60.05;;;18.52;;
54241;SDS011;40156;51.080;17.082;2022-12-10T04:00:39;55.53;;;17.67;;
54241;SDS011;40156;51.080;17.082;2022-12-10T04:03:07;62.10;;;17.75;;
54241;SDS011;40156;51.080;17.082;2022-12-10T04:05:36;56.25;;;17.85;;
54241;SDS011;40156;51.080;17.082;2022-12-10T04:08:03;57.25;;;16.65;;
54241;SDS011;40156;51.080;17.082;2022-12-10T04:10:34;55.10;;;18.02;;
54241;SDS011;40156;51.080;17.082;2022-12-10T04:13:02;60.78;;;17.83;;
54241;SDS011;40156;51.080;17.082;2022-12-10T04:15:29;65.35;;;18.58;;
54241;SDS011;40156;51.080;17.082;2022-12-10T04:17:57;49.58;;;17.10;;
54241;SDS011;40156;51.080;17.082;2022-12-10T04:20:24;59.03;;;18.50;;
54241;SDS011;40156;51.080;17.082;2022-12-10T04:22:52;56.85;;;17.00;;
54241;SDS011;40156;51.080;17.082;2022-12-10T04:25:19;52.22;;;15.95;;
54241;SDS011;40156;51.080;17.082;2022-12-10T04:27:47;54.20;;;18.23;;
54241;SDS011;40156;51.080;17.082;2022-12-10T04:30:14;58.38;;;17.83;;
54241;SDS011;40156;51.080;17.082;2022-12-10T04:32:42;61.63;;;17.88;;
54241;SDS011;40156;51.080;17.082;2022-12-10T04:35:09;44.50;;;15.40;;
54241;SDS011;40156;51.080;17.082;2022-12-10T04:37:37;51.20;;;16.42;;
54241;SDS011;40156;51.080;17.082;2022-12-10T04:40:05;58.42;;;16.52;;
54241;SDS011;40156;51.080;17.082;2022-12-10T04:42:34;47.78;;;15.65;;
54241;SDS011;40156;51.080;17.082;2022-12-10T04:45:01;49.13;;;16.50;;
54241;SDS011;40156;51.080;17.082;2022-12-10T04:47:28;45.10;;;13.18;;
54241;SDS011;40156;51.080;17.082;2022-12-10T04:49:56;47.67;;;16.23;;
54241;SDS011;40156;51.080;17.082;2022-12-10T04:52:24;57.55;;;16.02;;
54241;SDS011;40156;51.080;17.082;2022-12-10T04:54:51;58.05;;;14.98;;
54241;SDS011;40156;51.080;17.082;2022-12-10T04:57:18;47.72;;;16.17;;
54241;SDS011;40156;51.080;17.082;2022-12-10T04:59:46;51.25;;;16.70;;
54241;SDS011;40156;51.080;17.082;2022-12-10T05:02:13;41.63;;;14.07;;
54241;SDS011;40156;51.080;17.082;2022-12-10T05:04:41;49.67;;;16.13;;
54241;SDS011;40156;51.080;17.082;2022-12-10T05:07:09;47.50;;;16.77;;
54241;SDS011;40156;51.080;17.082;2022-12-10T05:09:37;50.83;;;16.80;;
54241;SDS011;40156;51.080;17.082;2022-12-10T05:12:05;50.88;;;17.02;;
54241;SDS011;40156;51.080;17.082;2022-12-10T05:14:32;40.55;;;14.25;;
54241;SDS011;40156;51.080;17.082;2022-12-10T05:17:00;47.95;;;14.88;;
54241;SDS011;40156;51.080;17.082;2022-12-10T05:19:27;44.10;;;15.93;;
54241;SDS011;40156;51.080;17.082;2022-12-10T05:21:55;45.67;;;15.35;;
54241;SDS011;40156;51.080;17.082;2022-12-10T05:24:22;55.17;;;17.30;;
54241;SDS011;40156;51.080;17.082;2022-12-10T05:26:50;38.33;;;13.88;;
54241;SDS011;40156;51.080;17.082;2022-12-10T05:29:18;53.67;;;16.67;;
54241;SDS011;40156;51.080;17.082;2022-12-10T05:31:46;48.85;;;15.80;;
54241;SDS011;40156;51.080;17.082;2022-12-10T05:34:13;48.50;;;15.57;;
54241;SDS011;40156;51.080;17.082;2022-12-10T05:36:41;45.15;;;16.17;;
54241;SDS011;40156;51.080;17.082;2022-12-10T05:39:09;46.03;;;14.38;;
54241;SDS011;40156;51.080;17.082;2022-12-10T05:41:38;52.70;;;15.68;;
54241;SDS011;40156;51.080;17.082;2022-12-10T05:44:06;46.13;;;16.58;;
54241;SDS011;40156;51.080;17.082;2022-12-10T05:46:34;50.28;;;16.10;;
54241;SDS011;40156;51.080;17.082;2022-12-10T05:49:02;52.08;;;16.35;;
54241;SDS011;40156;51.080;17.082;2022-12-10T05:51:32;40.35;;;15.50;;
54241;SDS011;40156;51.080;17.082;2022-12-10T05:54:00;46.45;;;14.88;;
54241;SDS011;40156;51.080;17.082;2022-12-10T05:56:28;44.33;;;13.55;;
54241;SDS011;40156;51.080;17.082;2022-12-10T05:58:57;40.30;;;13.55;;
54241;SDS011;40156;51.080;17.082;2022-12-10T06:01:26;52.67;;;15.77;;
54241;SDS011;40156;51.080;17.082;2022-12-10T06:03:54;40.38;;;14.60;;
54241;SDS011;40156;51.080;17.082;2022-12-10T06:06:22;47.97;;;14.63;;
54241;SDS011;40156;51.080;17.082;2022-12-10T06:08:50;49.97;;;15.38;;
54241;SDS011;40156;51.080;17.082;2022-12-10T06:11:18;61.17;;;16.58;;
54241;SDS011;40156;51.080;17.082;2022-12-10T06:13:45;47.33;;;15.68;;
54241;SDS011;40156;51.080;17.082;2022-12-10T06:16:19;38.53;;;13.63;;
54241;SDS011;40156;51.080;17.082;2022-12-10T06:18:47;54.17;;;15.73;;
54241;SDS011;40156;51.080;17.082;2022-12-10T06:21:15;49.63;;;16.20;;
54241;SDS011;40156;51.080;17.082;2022-12-10T06:23:43;45.00;;;16.27;;
54241;SDS011;40156;51.080;17.082;2022-12-10T06:26:12;55.30;;;16.10;;
54241;SDS011;40156;51.080;17.082;2022-12-10T06:28:41;53.85;;;16.45;;
54241;SDS011;40156;51.080;17.082;2022-12-10T06:31:10;50.20;;;16.17;;
54241;SDS011;40156;51.080;17.082;2022-12-10T06:33:37;48.22;;;15.98;;
54241;SDS011;40156;51.080;17.082;2022-12-10T06:36:05;49.30;;;16.55;;
54241;SDS011;40156;51.080;17.082;2022-12-10T06:38:34;54.22;;;17.70;;
54241;SDS011;40156;51.080;17.082;2022-12-10T06:41:05;47.80;;;15.63;;
54241;SDS011;40156;51.080;17.082;2022-12-10T06:43:33;44.17;;;16.85;;
54241;SDS011;40156;51.080;17.082;2022-12-10T06:46:07;38.85;;;15.00;;
54241;SDS011;40156;51.080;17.082;2022-12-10T06:48:34;44.90;;;14.70;;
54241;SDS011;40156;51.080;17.082;2022-12-10T06:51:03;41.17;;;14.75;;
54241;SDS011;40156;51.080;17.082;2022-12-10T06:53:31;50.28;;;18.45;;
54241;SDS011;40156;51.080;17.082;2022-12-10T06:55:59;50.45;;;15.60;;
54241;SDS011;40156;51.080;17.082;2022-12-10T06:58:27;47.50;;;16.58;;
54241;SDS011;40156;51.080;17.082;2022-12-10T07:01:02;43.38;;;16.48;;
54241;SDS011;40156;51.080;17.082;2022-12-10T07:03:30;50.22;;;17.83;;
54241;SDS011;40156;51.080;17.082;2022-12-10T07:05:58;45.88;;;16.70;;
54241;SDS011;40156;51.080;17.082;2022-12-10T07:08:26;47.38;;;16.45;;
54241;SDS011;40156;51.080;17.082;2022-12-10T07:10:54;43.38;;;15.63;;
54241;SDS011;40156;51.080;17.082;2022-12-10T07:13:22;50.97;;;17.08;;
54241;SDS011;40156;51.080;17.082;2022-12-10T07:15:57;47.35;;;16.48;;
54241;SDS011;40156;51.080;17.082;2022-12-10T07:18:24;41.63;;;14.02;;
54241;SDS011;40156;51.080;17.082;2022-12-10T07:20:52;48.22;;;16.85;;
54241;SDS011;40156;51.080;17.082;2022-12-10T07:23:20;47.30;;;17.20;;
54241;SDS011;40156;51.080;17.082;2022-12-10T07:25:48;52.78;;;16.02;;
54241;SDS011;40156;51.080;17.082;2022-12-10T07:28:15;41.65;;;16.33;;
54241;SDS011;40156;51.080;17.082;2022-12-10T07:30:43;51.17;;;17.33;;
54241;SDS011;40156;51.080;17.082;2022-12-10T07:33:10;41.58;;;16.67;;
54241;SDS011;40156;51.080;17.082;2022-12-10T07:35:38;50.72;;;17.60;;
54241;SDS011;40156;51.080;17.082;2022-12-10T07:38:11;50.08;;;18.02;;
54241;SDS011;40156;51.080;17.082;2022-12-10T07:40:39;57.15;;;18.48;;
54241;SDS011;40156;51.080;17.082;2022-12-10T07:43:06;58.67;;;18.35;;
54241;SDS011;40156;51.080;17.082;2022-12-10T07:45:34;49.65;;;17.75;;
54241;SDS011;40156;51.080;17.082;2022-12-10T07:48:02;51.03;;;17.40;;
54241;SDS011;40156;51.080;17.082;2022-12-10T07:50:32;54.03;;;18.23;;
54241;SDS011;40156;51.080;17.082;2022-12-10T07:52:59;46.22;;;17.10;;
54241;SDS011;40156;51.080;17.082;2022-12-10T07:55:27;55.35;;;18.17;;
54241;SDS011;40156;51.080;17.082;2022-12-10T07:57:54;53.97;;;17.40;;
54241;SDS011;40156;51.080;17.082;2022-12-10T08:00:22;50.45;;;17.33;;
54241;SDS011;40156;51.080;17.082;2022-12-10T08:02:50;53.25;;;17.02;;
54241;SDS011;40156;51.080;17.082;2022-12-10T08:05:17;55.15;;;17.10;;
54241;SDS011;40156;51.080;17.082;2022-12-10T08:07:45;57.13;;;18.45;;
54241;SDS011;40156;51.080;17.082;2022-12-10T08:10:12;55.03;;;19.02;;
54241;SDS011;40156;51.080;17.082;2022-12-10T08:12:40;52.85;;;18.52;;
54241;SDS011;40156;51.080;17.082;2022-12-10T08:15:07;56.55;;;18.55;;
54241;SDS011;40156;51.080;17.082;2022-12-10T08:17:35;53.63;;;17.35;;
54241;SDS011;40156;51.080;17.082;2022-12-10T08:20:03;56.63;;;18.77;;
54241;SDS011;40156;51.080;17.082;2022-12-10T08:22:30;53.10;;;17.63;;
54241;SDS011;40156;51.080;17.082;2022-12-10T08:24:58;49.13;;;17.98;;
54241;SDS011;40156;51.080;17.082;2022-12-10T08:27:25;56.15;;;18.15;;
54241;SDS011;40156;51.080;17.082;2022-12-10T08:29:53;52.85;;;17.85;;
54241;SDS011;40156;51.080;17.082;2022-12-10T08:32:20;43.28;;;14.75;;
54241;SDS011;40156;51.080;17.082;2022-12-10T08:34:48;43.03;;;16.13;;
54241;SDS011;40156;51.080;17.082;2022-12-10T08:37:15;52.60;;;17.55;;
54241;SDS011;40156;51.080;17.082;2022-12-10T08:39:43;44.78;;;18.08;;
54241;SDS011;40156;51.080;17.082;2022-12-10T08:42:10;50.47;;;17.00;;
54241;SDS011;40156;51.080;17.082;2022-12-10T08:44:38;52.63;;;16.60;;
54241;SDS011;40156;51.080;17.082;2022-12-10T08:47:05;46.67;;;16.38;;
54241;SDS011;40156;51.080;17.082;2022-12-10T08:49:51;45.10;;;15.75;;
54241;SDS011;40156;51.080;17.082;2022-12-10T08:52:37;53.60;;;16.73;;
54241;SDS011;40156;51.080;17.082;2022-12-10T08:55:24;49.25;;;16.42;;
54241;SDS011;40156;51.080;17.082;2022-12-10T08:57:51;43.47;;;15.63;;
54241;SDS011;40156;51.080;17.082;2022-12-10T09:00:19;46.83;;;16.95;;
54241;SDS011;40156;51.080;17.082;2022-12-10T09:02:46;37.83;;;12.88;;
54241;SDS011;40156;51.080;17.082;2022-12-10T09:05:14;45.63;;;15.43;;
54241;SDS011;40156;51.080;17.082;2022-12-10T09:07:43;36.25;;;13.25;;
54241;SDS011;40156;51.080;17.082;2022-12-10T09:10:11;49.58;;;16.92;;
54241;SDS011;40156;51.080;17.082;2022-12-10T09:12:38;45.83;;;16.30;;
54241;SDS011;40156;51.080;17.082;2022-12-10T09:15:11;44.88;;;16.90;;
54241;SDS011;40156;51.080;17.082;2022-12-10T09:17:40;49.08;;;18.05;;
54241;SDS011;40156;51.080;17.082;2022-12-10T09:20:08;51.30;;;15.23;;
54241;SDS011;40156;51.080;17.082;2022-12-10T09:22:36;45.63;;;17.23;;
54241;SDS011;40156;51.080;17.082;2022-12-10T09:25:04;43.15;;;14.95;;
54241;SDS011;40156;51.080;17.082;2022-12-10T09:27:32;34.95;;;14.07;;
54241;SDS011;40156;51.080;17.082;2022-12-10T09:30:00;43.50;;;16.02;;
54241;SDS011;40156;51.080;17.082;2022-12-10T09:32:30;45.03;;;16.25;;
54241;SDS011;40156;51.080;17.082;2022-12-10T09:34:57;38.88;;;15.50;;
54241;SDS011;40156;51.080;17.082;2022-12-10T09:37:25;46.00;;;17.92;;
54241;SDS011;40156;51.080;17.082;2022-12-10T09:39:53;33.97;;;13.45;;
54241;SDS011;40156;51.080;17.082;2022-12-10T09:42:26;53.05;;;16.27;;
54241;SDS011;40156;51.080;17.082;2022-12-10T09:45:11;42.65;;;14.82;;
54241;SDS011;40156;51.080;17.082;2022-12-10T09:50:41;41.92;;;15.85;;
54241;SDS011;40156;51.080;17.082;2022-12-10T09:53:12;48.00;;;17.00;;
54241;SDS011;40156;51.080;17.082;2022-12-10T09:55:43;46.13;;;17.27;;
54241;SDS011;40156;51.080;17.082;2022-12-10T09:58:16;46.28;;;16.65;;
54241;SDS011;40156;51.080;17.082;2022-12-10T10:00:49;45.20;;;16.33;;
54241;SDS011;40156;51.080;17.082;2022-12-10T10:03:21;41.97;;;15.55;;
54241;SDS011;40156;51.080;17.082;2022-12-10T10:05:49;48.72;;;15.60;;
54241;SDS011;40156;51.080;17.082;2022-12-10T10:08:28;38.40;;;14.90;;
54241;SDS011;40156;51.080;17.082;2022-12-10T10:10:59;44.53;;;15.48;;
54241;SDS011;40156;51.080;17.082;2022-12-10T10:19:01;40.33;;;14.40;;
54241;SDS011;40156;51.080;17.082;2022-12-10T10:21:32;39.65;;;16.02;;
54241;SDS011;40156;51.080;17.082;2022-12-10T10:24:03;44.22;;;16.67;;
54241;SDS011;40156;51.080;17.082;2022-12-10T10:26:38;39.15;;;15.77;;
54241;SDS011;40156;51.080;17.082;2022-12-10T10:29:06;45.05;;;16.40;;
54241;SDS011;40156;51.080;17.082;2022-12-10T10:31:38;39.92;;;14.50;;
54241;SDS011;40156;51.080;17.082;2022-12-10T10:34:19;50.10;;;17.00;;
54241;SDS011;40156;51.080;17.082;2022-12-10T10:36:58;41.40;;;17.20;;
54241;SDS011;40156;51.080;17.082;2022-12-10T10:39:28;49.95;;;18.30;;
54241;SDS011;40156;51.080;17.082;2022-12-10T10:41:57;40.92;;;15.77;;
54241;SDS011;40156;51.080;17.082;2022-12-10T10:44:28;45.50;;;14.68;;
54241;SDS011;40156;51.080;17.082;2022-12-10T10:47:01;39.97;;;15.57;;
54241;SDS011;40156;51.080;17.082;2022-12-10T10:49:29;46.42;;;14.98;;
54241;SDS011;40156;51.080;17.082;2022-12-10T10:52:04;35.03;;;13.45;;
54241;SDS011;40156;51.080;17.082;2022-12-10T10:54:38;42.55;;;14.90;;
54241;SDS011;40156;51.080;17.082;2022-12-10T10:59:37;39.22;;;14.13;;
54241;SDS011;40156;51.080;17.082;2022-12-10T11:02:15;41.88;;;15.02;;
54241;SDS011;40156;51.080;17.082;2022-12-10T11:04:51;39.38;;;13.25;;
54241;SDS011;40156;51.080;17.082;2022-12-10T11:07:38;36.67;;;14.15;;
54241;SDS011;40156;51.080;17.082;2022-12-10T11:10:22;39.10;;;15.93;;
54241;SDS011;40156;51.080;17.082;2022-12-10T11:12:55;40.05;;;15.30;;
54241;SDS011;40156;51.080;17.082;2022-12-10T11:15:35;42.38;;;13.90;;
54241;SDS011;40156;51.080;17.082;2022-12-10T11:18:09;43.28;;;15.40;;
54241;SDS011;40156;51.080;17.082;2022-12-10T11:23:28;32.03;;;13.05;;
54241;SDS011;40156;51.080;17.082;2022-12-10T11:26:08;39.90;;;14.80;;
54241;SDS011;40156;51.080;17.082;2022-12-10T11:34:00;38.38;;;14.80;;
54241;SDS011;40156;51.080;17.082;2022-12-10T11:36:35;42.15;;;15.25;;
54241;SDS011;40156;51.080;17.082;2022-12-10T11:39:17;41.58;;;15.05;;
54241;SDS011;40156;51.080;17.082;2022-12-10T11:42:12;48.25;;;16.73;;
54241;SDS011;40156;51.080;17.082;2022-12-10T11:44:49;45.17;;;15.63;;
54241;SDS011;40156;51.080;17.082;2022-12-10T11:52:51;35.85;;;14.73;;
54241;SDS011;40156;51.080;17.082;2022-12-10T11:55:35;37.88;;;14.80;;
54241;SDS011;40156;51.080;17.082;2022-12-10T12:03:37;40.75;;;15.82;;
54241;SDS011;40156;51.080;17.082;2022-12-10T12:11:53;42.25;;;15.52;;
54241;SDS011;40156;51.080;17.082;2022-12-10T12:17:03;39.78;;;16.27;;
54241;SDS011;40156;51.080;17.082;2022-12-10T12:19:34;35.22;;;14.93;;
54241;SDS011;40156;51.080;17.082;2022-12-10T12:22:25;40.03;;;16.27;;
54241;SDS011;40156;51.080;17.082;2022-12-10T12:24:54;40.65;;;16.75;;
54241;SDS011;40156;51.080;17.082;2022-12-10T12:32:25;40.75;;;14.75;;
54241;SDS011;40156;51.080;17.082;2022-12-10T12:34:56;43.97;;;17.00;;
54241;SDS011;40156;51.080;17.082;2022-12-10T12:38:16;36.97;;;14.60;;
54241;SDS011;40156;51.080;17.082;2022-12-10T12:42:55;44.88;;;16.40;;
54241;SDS011;40156;51.080;17.082;2022-12-10T12:48:01;43.17;;;15.82;;
54241;SDS011;40156;51.080;17.082;2022-12-10T12:53:00;45.85;;;15.95;;
54241;SDS011;40156;51.080;17.082;2022-12-10T12:58:20;40.22;;;16.83;;
54241;SDS011;40156;51.080;17.082;2022-12-10T13:00:43;50.00;;;17.08;;
54241;SDS011;40156;51.080;17.082;2022-12-10T13:05:43;44.50;;;16.38;;
54241;SDS011;40156;51.080;17.082;2022-12-10T13:08:20;44.63;;;17.58;;
54241;SDS011;40156;51.080;17.082;2022-12-10T13:13:37;47.03;;;18.20;;
54241;SDS011;40156;51.080;17.082;2022-12-10T13:18:53;48.85;;;17.92;;
54241;SDS011;40156;51.080;17.082;2022-12-10T13:21:49;47.35;;;17.17;;
54241;SDS011;40156;51.080;17.082;2022-12-10T13:32:53;48.70;;;18.42;;
54241;SDS011;40156;51.080;17.082;2022-12-10T13:35:31;47.08;;;17.52;;
54241;SDS011;40156;51.080;17.082;2022-12-10T13:38:22;50.30;;;18.10;;
54241;SDS011;40156;51.080;17.082;2022-12-10T13:41:08;57.35;;;17.88;;
54241;SDS011;40156;51.080;17.082;2022-12-10T13:43:57;42.28;;;18.27;;
54241;SDS011;40156;51.080;17.082;2022-12-10T13:56:14;48.40;;;18.20;;
54241;SDS011;40156;51.080;17.082;2022-12-10T14:04:04;42.65;;;15.98;;
54241;SDS011;40156;51.080;17.082;2022-12-10T14:06:42;41.13;;;16.02;;
54241;SDS011;40156;51.080;17.082;2022-12-10T14:11:51;51.00;;;18.98;;
54241;SDS011;40156;51.080;17.082;2022-12-10T14:14:30;47.00;;;17.45;;
54241;SDS011;40156;51.080;17.082;2022-12-10T14:17:05;47.05;;;16.75;;
54241;SDS011;40156;51.080;17.082;2022-12-10T14:23:26;44.22;;;16.77;;
54241;SDS011;40156;51.080;17.082;2022-12-10T14:26:16;48.20;;;16.90;;
54241;SDS011;40156;51.080;17.082;2022-12-10T14:28:45;42.35;;;15.77;;
54241;SDS011;40156;51.080;17.082;2022-12-10T14:31:29;44.22;;;15.95;;
54241;SDS011;40156;51.080;17.082;2022-12-10T14:34:01;53.13;;;19.83;;
54241;SDS011;40156;51.080;17.082;2022-12-10T14:36:34;51.30;;;18.90;;
54241;SDS011;40156;51.080;17.082;2022-12-10T14:39:02;51.47;;;17.55;;
54241;SDS011;40156;51.080;17.082;2022-12-10T14:41:48;44.05;;;16.70;;
54241;SDS011;40156;51.080;17.082;2022-12-10T14:44:17;53.38;;;18.10;;
54241;SDS011;40156;51.080;17.082;2022-12-10T14:46:49;42.05;;;16.73;;
54241;SDS011;40156;51.080;17.082;2022-12-10T14:49:25;47.05;;;17.52;;
54241;SDS011;40156;51.080;17.082;2022-12-10T14:51:55;42.20;;;17.52;;
54241;SDS011;40156;51.080;17.082;2022-12-10T14:54:23;41.28;;;17.27;;
54241;SDS011;40156;51.080;17.082;2022-12-10T14:56:55;53.90;;;17.00;;
54241;SDS011;40156;51.080;17.082;2022-12-10T14:59:59;47.97;;;17.98;;
54241;SDS011;40156;51.080;17.082;2022-12-10T15:02:18;43.75;;;17.75;;
54241;SDS011;40156;51.080;17.082;2022-12-10T15:04:53;43.80;;;16.60;;
54241;SDS011;40156;51.080;17.082;2022-12-10T15:07:25;48.42;;;17.98;;
54241;SDS011;40156;51.080;17.082;2022-12-10T15:09:53;51.17;;;18.07;;
54241;SDS011;40156;51.080;17.082;2022-12-10T15:14:55;39.20;;;16.08;;
54241;SDS011;40156;51.080;17.082;2022-12-10T15:17:36;44.63;;;17.67;;
54241;SDS011;40156;51.080;17.082;2022-12-10T15:20:09;53.65;;;17.73;;
54241;SDS011;40156;51.080;17.082;2022-12-10T15:22:38;51.78;;;19.88;;
54241;SDS011;40156;51.080;17.082;2022-12-10T15:25:14;48.58;;;16.80;;
54241;SDS011;40156;51.080;17.082;2022-12-10T15:27:51;54.97;;;18.67;;
54241;SDS011;40156;51.080;17.082;2022-12-10T15:30:22;54.60;;;18.83;;
54241;SDS011;40156;51.080;17.082;2022-12-10T15:32:50;57.35;;;18.45;;
54241;SDS011;40156;51.080;17.082;2022-12-10T15:35:20;55.97;;;20.13;;
54241;SDS011;40156;51.080;17.082;2022-12-10T15:37:51;46.83;;;16.00;;
54241;SDS011;40156;51.080;17.082;2022-12-10T15:40:24;53.83;;;19.20;;
54241;SDS011;40156;51.080;17.082;2022-12-10T15:43:10;58.05;;;20.35;;
54241;SDS011;40156;51.080;17.082;2022-12-10T15:45:39;54.28;;;19.05;;
54241;SDS011;40156;51.080;17.082;2022-12-10T15:48:08;52.30;;;18.55;;
54241;SDS011;40156;51.080;17.082;2022-12-10T15:50:40;53.78;;;18.30;;
54241;SDS011;40156;51.080;17.082;2022-12-10T15:53:12;57.17;;;19.85;;
54241;SDS011;40156;51.080;17.082;2022-12-10T15:55:40;47.23;;;18.67;;
54241;SDS011;40156;51.080;17.082;2022-12-10T15:58:11;52.25;;;18.25;;
54241;SDS011;40156;51.080;17.082;2022-12-10T16:00:39;47.00;;;17.37;;
54241;SDS011;40156;51.080;17.082;2022-12-10T16:03:08;54.33;;;18.17;;
54241;SDS011;40156;51.080;17.082;2022-12-10T16:05:36;52.30;;;18.92;;
54241;SDS011;40156;51.080;17.082;2022-12-10T16:08:18;52.45;;;18.98;;
54241;SDS011;40156;51.080;17.082;2022-12-10T16:10:47;53.65;;;18.60;;
54241;SDS011;40156;51.080;17.082;2022-12-10T16:13:18;46.20;;;16.90;;
54241;SDS011;40156;51.080;17.082;2022-12-10T16:15:54;54.10;;;18.85;;
54241;SDS011;40156;51.080;17.082;2022-12-10T16:18:22;53.97;;;18.05;;
54241;SDS011;40156;51.080;17.082;2022-12-10T16:20:50;59.97;;;17.85;;
54241;SDS011;40156;51.080;17.082;2022-12-10T16:23:17;55.88;;;19.23;;
54241;SDS011;40156;51.080;17.082;2022-12-10T16:25:45;51.85;;;17.77;;
54241;SDS011;40156;51.080;17.082;2022-12-10T16:28:13;51.05;;;18.50;;
54241;SDS011;40156;51.080;17.082;2022-12-10T16:30:59;44.67;;;17.95;;
54241;SDS011;40156;51.080;17.082;2022-12-10T16:33:27;53.17;;;19.58;;